Time;durP1;ratioP1;P1;durP2;ratioP2;P2;SDS_P1;SDS_P2;PMS_P1;PMS_P2;Temp;Humidity;BMP_temperature;BMP_pressure;BME280_temperature;BME280_humidity;BME280_pressure;Samples;Min_cycle;Max_cycle;Signal;HPM_P1;HPM_P2
2021/06/14 04:29:42;;;;;;;0.00;0.00;;;;;;;;;;3762370;28;20218;-64
2021/06/14 04:32:09;;;;;;;0.57;0.57;;;;;;;;;;5037576;28;20496;-69
2021/06/14 04:34:38;;;;;;;1.17;0.57;;;;;;;;;;5030853;28;20615;-65
2021/06/14 04:37:05;;;;;;;1.03;0.77;;;;;;;;;;5033768;28;20183;-65
2021/06/14 04:39:32;;;;;;;0.00;0.00;;;;;;;;;;5036977;28;20902;-66
2021/06/14 04:41:58;;;;;;;0.00;0.00;;;;;;;;;;5039919;28;20180;-66
2021/06/14 04:44:27;;;;;;;0.00;0.00;;;;;;;;;;5036842;28;20860;-66
2021/06/14 04:46:56;;;;;;;1.17;0.40;;;;;;;;;;5037182;28;20184;-66
2021/06/14 04:49:23;;;;;;;1.73;0.67;;;;;;;;;;5031609;28;20230;-65
2021/06/14 04:51:49;;;;;;;0.47;0.47;;;;;;;;;;5032161;28;20312;-67
2021/06/14 04:54:16;;;;;;;0.00;0.00;;;;;;;;;;5036527;28;20271;-67
2021/06/14 04:56:43;;;;;;;0.00;0.00;;;;;;;;;;5027924;28;20176;-67
2021/06/14 04:59:12;;;;;;;0.23;0.23;;;;;;;;;;5030276;28;20669;-66
2021/06/14 05:01:38;;;;;;;1.13;0.23;;;;;;;;;;5035004;28;20182;-66
2021/06/14 05:04:08;;;;;;;2.47;0.80;;;;;;;;;;5037991;28;20179;-70
2021/06/14 05:06:34;;;;;;;0.00;0.00;;;;;;;;;;5038412;28;20396;-69
2021/06/14 05:09:01;;;;;;;0.00;0.00;;;;;;;;;;5033254;28;20188;-73
2021/06/14 05:11:27;;;;;;;0.43;0.43;;;;;;;;;;5039641;28;20211;-68
2021/06/14 05:13:59;;;;;;;2.73;0.63;;;;;;;;;;5037714;28;20536;-68
2021/06/14 05:16:25;;;;;;;1.17;0.40;;;;;;;;;;5037280;28;20184;-68
2021/06/14 05:18:52;;;;;;;0.20;0.20;;;;;;;;;;5034871;28;20187;-70
2021/06/14 05:21:18;;;;;;;0.00;0.00;;;;;;;;;;5032893;28;20187;-69
2021/06/14 05:23:45;;;;;;;0.00;0.00;;;;;;;;;;5039354;28;20176;-69
2021/06/14 05:26:12;;;;;;;1.20;0.67;;;;;;;;;;5038007;28;20614;-69
2021/06/14 05:28:41;;;;;;;0.00;0.00;;;;;;;;;;5034823;28;20190;-70
2021/06/14 05:31:07;;;;;;;0.40;0.40;;;;;;;;;;5039311;28;20247;-70
2021/06/14 05:33:34;;;;;;;0.00;0.00;;;;;;;;;;5032419;28;20189;-68
2021/06/14 05:36:00;;;;;;;0.10;0.03;;;;;;;;;;5036128;28;20187;-69
2021/06/14 05:38:27;;;;;;;0.00;0.00;;;;;;;;;;5036693;28;20182;-69
2021/06/14 05:40:53;;;;;;;0.00;0.00;;;;;;;;;;5040583;28;20191;-69
2021/06/14 05:43:20;;;;;;;0.00;0.00;;;;;;;;;;5023066;28;20191;-69
2021/06/14 05:45:51;;;;;;;0.30;0.20;;;;;;;;;;5035069;28;20192;-71
2021/06/14 05:48:18;;;;;;;0.63;0.60;;;;;;;;;;5037135;28;20187;-71
2021/06/14 05:50:45;;;;;;;0.00;0.00;;;;;;;;;;5038971;28;20207;-71
2021/06/14 05:53:12;;;;;;;0.00;0.00;;;;;;;;;;5041336;28;22509;-71
2021/06/14 05:55:39;;;;;;;0.20;0.10;;;;;;;;;;5041409;28;20180;-71
2021/06/14 05:58:05;;;;;;;0.00;0.00;;;;;;;;;;5033742;28;20291;-71
2021/06/14 06:00:32;;;;;;;0.63;0.40;;;;;;;;;;5040101;28;21502;-71
2021/06/14 06:02:58;;;;;;;0.30;0.30;;;;;;;;;;5039727;28;20179;-71
2021/06/14 06:05:25;;;;;;;0.10;0.10;;;;;;;;;;5044771;28;20176;-70
2021/06/14 06:07:54;;;;;;;0.00;0.00;;;;;;;;;;5036612;28;20184;-72
2021/06/14 06:10:21;;;;;;;0.23;0.10;;;;;;;;;;5043194;28;20786;-71
2021/06/14 06:12:50;;;;;;;0.00;0.00;;;;;;;;;;5037692;28;20180;-72
2021/06/14 06:15:20;;;;;;;0.00;0.00;;;;;;;;;;5034768;28;20188;-71
2021/06/14 06:17:47;;;;;;;0.00;0.00;;;;;;;;;;5035363;28;20253;-71
2021/06/14 06:20:15;;;;;;;0.57;0.40;;;;;;;;;;5043327;28;20179;-71
2021/06/14 06:22:42;;;;;;;16.77;0.73;;;;;;;;;;5042440;28;20194;-71
2021/06/14 06:25:22;;;;;;;0.00;0.00;;;;;;;;;;5041283;28;20176;-70
2021/06/14 06:27:51;;;;;;;3.50;0.23;;;;;;;;;;5038059;28;20176;-71
2021/06/14 06:30:22;;;;;;;0.00;0.00;;;;;;;;;;5042234;28;20223;-71
2021/06/14 06:32:49;;;;;;;0.00;0.00;;;;;;;;;;5039876;28;20212;-70
2021/06/14 13:10:15;;;;;;;3.23;1.60;;;;;;;;;;5097854;27;20522;-64
2021/06/14 13:12:42;;;;;;;1.70;1.40;;;;;;;;;;5097433;28;20245;-64
2021/06/14 13:15:08;;;;;;;2.33;1.20;;;;;;;;;;5097079;28;20171;-64
2021/06/14 13:17:35;;;;;;;6.03;1.07;;;;;;;;;;5097850;28;20193;-64
2021/06/14 13:20:01;;;;;;;2.00;0.87;;;;;;;;;;5097781;28;20270;-64
2021/06/14 13:22:34;;;;;;;0.20;0.07;;;;;;;;;;5097505;28;20213;-64
2021/06/14 13:25:08;;;;;;;6.20;1.17;;;;;;;;;;5097567;28;20162;-64
2021/06/14 13:27:35;;;;;;;4.37;1.60;;;;;;;;;;5095198;28;20202;-64
2021/06/14 13:30:04;;;;;;;2.40;0.87;;;;;;;;;;5093940;28;20226;-64
2021/06/14 13:35:20;;;;;;;0.00;0.00;;;;;;;;;;5094628;28;20219;-64
2021/06/14 13:37:48;;;;;;;1.70;0.97;;;;;;;;;;5094609;28;20394;-64
2021/06/14 13:40:16;;;;;;;0.83;0.37;;;;;;;;;;5097296;28;20293;-64
2021/06/14 13:42:43;;;;;;;0.00;0.00;;;;;;;;;;5087306;28;20192;-64
2021/06/14 13:45:10;;;;;;;0.00;0.00;;;;;;;;;;5094978;28;20643;-68
2021/06/14 13:47:37;;;;;;;0.10;0.10;;;;;;;;;;5094452;28;20162;-64
2021/06/14 13:50:12;;;;;;;10.13;2.20;;;;;;;;;;5095769;28;20253;-65
2021/06/14 13:52:39;;;;;;;0.50;0.50;;;;;;;;;;5095844;28;20178;-64
2021/06/14 13:55:06;;;;;;;1.07;0.73;;;;;;;;;;5096470;28;20642;-65
2021/06/14 13:57:32;;;;;;;0.10;0.10;;;;;;;;;;5096763;28;20169;-64
2021/06/14 14:00:10;;;;;;;14.73;4.83;;;;;;;;;;5095439;28;20243;-65
2021/06/14 14:02:44;;;;;;;0.00;0.00;;;;;;;;;;5094744;28;20178;-65
2021/06/14 14:05:21;;;;;;;0.00;0.00;;;;;;;;;;5094261;28;20192;-65
2021/06/14 14:07:47;;;;;;;6.40;3.30;;;;;;;;;;5098081;28;20216;-65
2021/06/14 14:10:14;;;;;;;0.00;0.00;;;;;;;;;;5095668;28;20227;-65
2021/06/14 14:12:40;;;;;;;0.47;0.47;;;;;;;;;;5095240;28;20182;-65
2021/06/14 14:15:07;;;;;;;7.43;1.03;;;;;;;;;;5090812;28;20182;-65
2021/06/14 14:17:33;;;;;;;0.07;0.07;;;;;;;;;;5095897;28;20642;-66
2021/06/14 14:20:02;;;;;;;0.00;0.00;;;;;;;;;;5087865;28;20182;-65
2021/06/14 14:22:29;;;;;;;0.03;0.03;;;;;;;;;;5081571;28;20221;-65
2021/06/14 14:24:55;;;;;;;6.83;1.77;;;;;;;;;;5081386;28;20169;-65
2021/06/14 14:27:22;;;;;;;2.63;1.93;;;;;;;;;;5081842;28;20213;-65
2021/06/14 14:29:49;;;;;;;2.23;1.37;;;;;;;;;;5082426;28;20736;-65
2021/06/14 14:32:15;;;;;;;2.03;0.90;;;;;;;;;;5080554;28;20178;-65
2021/06/14 14:34:43;;;;;;;1.53;1.43;;;;;;;;;;5081556;28;20196;-65
2021/06/14 14:37:30;;;;;;;0.30;0.10;;;;;;;;;;5078376;28;20631;-65
2021/06/14 14:40:09;;;;;;;3.20;2.20;;;;;;;;;;5066114;28;20191;-65
2021/06/14 14:42:36;;;;;;;0.77;0.77;;;;;;;;;;5081650;28;20260;-65
2021/06/14 14:45:04;;;;;;;0.00;0.00;;;;;;;;;;5082143;28;20239;-65
2021/06/14 14:47:30;;;;;;;4.07;1.20;;;;;;;;;;5081869;28;20269;-65
2021/06/14 14:49:57;;;;;;;3.60;0.30;;;;;;;;;;5081503;28;20190;-65
2021/06/14 14:52:24;;;;;;;0.00;0.00;;;;;;;;;;5080485;28;20190;-64
2021/06/14 14:54:54;;;;;;;2.57;1.17;;;;;;;;;;5079990;28;20272;-64
2021/06/14 14:57:21;;;;;;;1.93;1.60;;;;;;;;;;5081711;28;20693;-64
2021/06/14 14:59:47;;;;;;;0.97;0.67;;;;;;;;;;5080109;28;21009;-64
2021/06/14 15:02:14;;;;;;;0.00;0.00;;;;;;;;;;5080808;28;20243;-64
2021/06/14 15:04:41;;;;;;;1.80;0.87;;;;;;;;;;5080837;28;20175;-64
2021/06/14 15:07:07;;;;;;;1.37;1.20;;;;;;;;;;5079962;28;20368;-65
2021/06/14 15:09:34;;;;;;;0.20;0.20;;;;;;;;;;5080291;28;20324;-65
2021/06/14 15:12:02;;;;;;;3.50;0.67;;;;;;;;;;5080848;28;20663;-65
2021/06/14 15:14:29;;;;;;;0.00;0.00;;;;;;;;;;5080346;28;20181;-65
2021/06/14 15:16:55;;;;;;;4.30;1.37;;;;;;;;;;5081154;28;20262;-65
2021/06/14 15:19:22;;;;;;;3.07;0.97;;;;;;;;;;5081023;28;20197;-65
2021/06/14 15:21:49;;;;;;;2.70;1.13;;;;;;;;;;5081447;28;20178;-65
2021/06/14 15:24:15;;;;;;;12.33;3.30;;;;;;;;;;5081303;28;20539;-65
2021/06/14 15:26:42;;;;;;;0.53;0.30;;;;;;;;;;5081524;28;20199;-65
2021/06/14 15:29:08;;;;;;;1.93;0.47;;;;;;;;;;5081108;28;20201;-65
2021/06/14 15:31:35;;;;;;;5.00;1.43;;;;;;;;;;5080041;28;20535;-65
2021/06/14 15:34:05;;;;;;;0.40;0.40;;;;;;;;;;5080557;28;20188;-65
2021/06/14 15:36:32;;;;;;;2.43;0.30;;;;;;;;;;5079947;28;20186;-65
2021/06/14 15:38:59;;;;;;;1.37;1.20;;;;;;;;;;5080367;28;20181;-65
2021/06/14 15:41:26;;;;;;;1.00;0.77;;;;;;;;;;5081130;28;20445;-65
2021/06/14 15:43:53;;;;;;;3.27;0.53;;;;;;;;;;5080461;28;20281;-65
2021/06/14 15:46:19;;;;;;;0.10;0.03;;;;;;;;;;5078685;28;20212;-65
2021/06/14 15:48:46;;;;;;;0.73;0.73;;;;;;;;;;5079664;28;20197;-65
2021/06/14 15:51:13;;;;;;;0.60;0.53;;;;;;;;;;5080888;28;20892;-65
2021/06/14 15:53:39;;;;;;;0.20;0.20;;;;;;;;;;5080060;28;20173;-66
2021/06/14 15:56:06;;;;;;;1.43;0.63;;;;;;;;;;5080413;28;20174;-64
2021/06/14 15:58:32;;;;;;;0.63;0.63;;;;;;;;;;5080562;28;20679;-65
2021/06/14 16:01:01;;;;;;;8.17;1.37;;;;;;;;;;5079694;28;20185;-65
2021/06/14 16:03:28;;;;;;;3.63;1.07;;;;;;;;;;5078584;28;20180;-65
2021/06/14 16:05:55;;;;;;;0.00;0.00;;;;;;;;;;5080285;28;20541;-65
2021/06/14 16:08:22;;;;;;;0.43;0.20;;;;;;;;;;5080416;28;20230;-65
2021/06/14 16:10:49;;;;;;;0.00;0.00;;;;;;;;;;5080407;28;20603;-65
2021/06/14 16:13:16;;;;;;;1.40;1.40;;;;;;;;;;5077893;28;20185;-65
2021/06/14 16:15:43;;;;;;;0.57;0.57;;;;;;;;;;5079943;28;20273;-65
2021/06/14 16:18:10;;;;;;;0.00;0.00;;;;;;;;;;5079570;28;20196;-65
2021/06/14 16:20:37;;;;;;;1.60;0.73;;;;;;;;;;5080675;28;20653;-65
2021/06/14 16:23:03;;;;;;;10.23;1.60;;;;;;;;;;5077897;28;20190;-65
2021/06/14 16:25:30;;;;;;;0.67;0.13;;;;;;;;;;5079430;28;20189;-66
2021/06/14 16:27:57;;;;;;;1.60;0.80;;;;;;;;;;5079010;28;20236;-65
2021/06/14 16:30:23;;;;;;;3.70;0.47;;;;;;;;;;5080344;28;20230;-65
2021/06/14 16:32:50;;;;;;;4.37;0.87;;;;;;;;;;5079814;28;20613;-65
2021/06/14 16:35:17;;;;;;;1.60;1.30;;;;;;;;;;5082411;28;20252;-65
2021/06/14 16:37:46;;;;;;;0.00;0.00;;;;;;;;;;5079761;28;20871;-65
2021/06/14 16:40:13;;;;;;;2.70;0.70;;;;;;;;;;5079978;28;20241;-65
2021/06/14 16:42:40;;;;;;;0.57;0.57;;;;;;;;;;5079084;28;20219;-65
2021/06/14 16:45:08;;;;;;;9.17;6.63;;;;;;;;;;5077804;28;20220;-65
2021/06/14 16:47:35;;;;;;;0.17;0.17;;;;;;;;;;5079669;28;20930;-64
2021/06/14 16:50:02;;;;;;;16.97;0.70;;;;;;;;;;5078893;28;20185;-64
2021/06/14 16:52:28;;;;;;;0.10;0.00;;;;;;;;;;5078494;28;20188;-64
2021/06/14 16:54:56;;;;;;;6.67;1.43;;;;;;;;;;5079584;28;20186;-65
2021/06/14 16:57:23;;;;;;;2.53;1.37;;;;;;;;;;5080073;28;20962;-64
2021/06/14 16:59:49;;;;;;;0.03;0.03;;;;;;;;;;5079305;28;20190;-65
2021/06/14 17:02:17;;;;;;;3.37;0.03;;;;;;;;;;5079609;28;20190;-65
2021/06/14 17:04:44;;;;;;;2.47;1.27;;;;;;;;;;5079778;28;20168;-64
2021/06/14 17:07:10;;;;;;;0.30;0.30;;;;;;;;;;5079447;28;20629;-64
2021/06/14 17:09:38;;;;;;;0.80;0.77;;;;;;;;;;5078604;28;20282;-64
2021/06/14 17:12:05;;;;;;;6.77;1.13;;;;;;;;;;5079506;28;20174;-64
2021/06/14 17:14:33;;;;;;;3.30;0.93;;;;;;;;;;5077290;28;20189;-64
2021/06/14 17:17:00;;;;;;;0.80;0.67;;;;;;;;;;5079788;28;20564;-65
2021/06/14 17:19:26;;;;;;;10.90;1.10;;;;;;;;;;5079785;28;20182;-65
2021/06/14 17:21:53;;;;;;;6.40;0.90;;;;;;;;;;5078996;28;20734;-64
2021/06/14 17:24:20;;;;;;;3.90;0.97;;;;;;;;;;5079304;28;20209;-64
2021/06/14 17:26:47;;;;;;;0.97;0.97;;;;;;;;;;5079513;28;20184;-64
2021/06/14 17:29:13;;;;;;;6.00;0.80;;;;;;;;;;5079002;28;20244;-64
2021/06/14 17:31:40;;;;;;;0.20;0.20;;;;;;;;;;5079640;28;20221;-64
2021/06/14 17:34:06;;;;;;;2.43;1.80;;;;;;;;;;5079023;28;20187;-64
2021/06/14 17:36:33;;;;;;;5.10;0.77;;;;;;;;;;5078754;28;20360;-64
2021/06/14 17:39:00;;;;;;;1.97;0.93;;;;;;;;;;5078535;28;20198;-64
2021/06/14 17:41:26;;;;;;;0.83;0.77;;;;;;;;;;5079561;28;20179;-65
2021/06/14 17:43:53;;;;;;;0.50;0.30;;;;;;;;;;5079620;28;21010;-64
2021/06/14 17:46:19;;;;;;;3.40;0.60;;;;;;;;;;5078640;28;20299;-64
2021/06/14 17:48:46;;;;;;;0.00;0.00;;;;;;;;;;5078874;28;20232;-65
2021/06/14 17:51:12;;;;;;;0.47;0.47;;;;;;;;;;5078810;28;20198;-64
2021/06/14 17:53:39;;;;;;;1.10;1.00;;;;;;;;;;5077872;28;20397;-64
2021/06/14 17:56:06;;;;;;;6.80;0.53;;;;;;;;;;5081671;28;20641;-64
2021/06/14 17:58:33;;;;;;;0.00;0.00;;;;;;;;;;5080000;28;20191;-64
2021/06/14 18:00:59;;;;;;;1.30;0.83;;;;;;;;;;5082004;28;20277;-65
2021/06/14 18:03:26;;;;;;;1.60;0.53;;;;;;;;;;5079997;28;20193;-64
2021/06/14 18:05:53;;;;;;;1.93;0.60;;;;;;;;;;5072619;28;20663;-64
2021/06/14 18:08:20;;;;;;;0.63;0.40;;;;;;;;;;5073432;28;20229;-65
2021/06/14 18:10:47;;;;;;;0.20;0.10;;;;;;;;;;5065599;28;20821;-65
2021/06/14 18:13:13;;;;;;;0.00;0.00;;;;;;;;;;5066655;28;20573;-64
2021/06/14 18:15:40;;;;;;;2.10;0.83;;;;;;;;;;5063871;28;20191;-66
2021/06/14 18:18:07;;;;;;;0.40;0.40;;;;;;;;;;5060578;28;20187;-65
2021/06/14 18:20:34;;;;;;;2.30;0.53;;;;;;;;;;5077359;28;20216;-64
2021/06/14 18:23:02;;;;;;;0.90;0.13;;;;;;;;;;5080097;28;20174;-65
2021/06/14 18:25:29;;;;;;;1.13;1.03;;;;;;;;;;5062108;28;20715;-64
2021/06/14 18:27:56;;;;;;;2.17;0.90;;;;;;;;;;5064587;28;20265;-65
2021/06/14 18:30:23;;;;;;;0.00;0.00;;;;;;;;;;5079124;28;20189;-64
2021/06/14 18:33:09;;;;;;;0.00;0.00;;;;;;;;;;5074189;28;20179;-65
2021/06/14 18:35:36;;;;;;;4.03;1.17;;;;;;;;;;5064931;28;20190;-65
2021/06/14 18:38:03;;;;;;;25.00;2.93;;;;;;;;;;5070237;28;21036;-64
2021/06/14 18:40:29;;;;;;;1.90;1.77;;;;;;;;;;5065270;28;20196;-64
2021/06/14 18:42:56;;;;;;;0.00;0.00;;;;;;;;;;5065700;28;20189;-64
2021/06/14 18:45:22;;;;;;;0.23;0.23;;;;;;;;;;5081111;28;20677;-65
2021/06/14 18:47:49;;;;;;;0.10;0.10;;;;;;;;;;5077832;28;20655;-65
2021/06/14 18:50:16;;;;;;;1.03;0.40;;;;;;;;;;5061253;28;20203;-65
2021/06/14 18:52:43;;;;;;;0.00;0.00;;;;;;;;;;5060183;28;20708;-66
2021/06/14 18:55:10;;;;;;;2.33;1.13;;;;;;;;;;5063195;28;20269;-65
2021/06/14 18:57:36;;;;;;;5.10;0.53;;;;;;;;;;5063182;28;20201;-65
2021/06/14 19:00:04;;;;;;;1.30;1.20;;;;;;;;;;5060643;28;20294;-64
2021/06/14 19:02:31;;;;;;;3.37;1.80;;;;;;;;;;5060197;28;20630;-64
2021/06/14 19:05:00;;;;;;;0.07;0.07;;;;;;;;;;5064370;28;20267;-65
2021/06/14 19:07:29;;;;;;;0.00;0.00;;;;;;;;;;5067885;28;20655;-65
2021/06/14 19:09:57;;;;;;;2.67;0.50;;;;;;;;;;5064363;28;20315;-65
2021/06/14 19:12:24;;;;;;;13.27;1.07;;;;;;;;;;5061799;28;20591;-64
2021/06/14 19:14:51;;;;;;;0.33;0.33;;;;;;;;;;5069328;28;20226;-64
2021/06/14 19:17:17;;;;;;;0.00;0.00;;;;;;;;;;5075234;28;20597;-64
2021/06/14 19:19:44;;;;;;;0.20;0.13;;;;;;;;;;5080232;28;20672;-65
2021/06/14 19:22:10;;;;;;;1.93;0.93;;;;;;;;;;5078987;28;20179;-64
2021/06/14 19:24:37;;;;;;;0.10;0.07;;;;;;;;;;5076873;28;20192;-65
2021/06/14 19:27:04;;;;;;;0.00;0.00;;;;;;;;;;5073066;28;20715;-64
2021/06/14 19:29:31;;;;;;;0.93;0.77;;;;;;;;;;5074026;28;20205;-66
2021/06/14 19:31:57;;;;;;;2.10;0.17;;;;;;;;;;5079103;28;20230;-67
2021/06/14 19:34:24;;;;;;;2.73;2.57;;;;;;;;;;5073395;28;20193;-67
2021/06/14 19:36:50;;;;;;;13.83;0.70;;;;;;;;;;5072978;28;20186;-67
2021/06/14 19:39:17;;;;;;;4.53;1.00;;;;;;;;;;5068984;28;20658;-67
2021/06/14 19:41:43;;;;;;;0.30;0.30;;;;;;;;;;5065139;28;20218;-66
2021/06/14 19:44:10;;;;;;;10.40;1.53;;;;;;;;;;5071605;28;20190;-67
2021/06/14 19:46:36;;;;;;;4.37;2.43;;;;;;;;;;5079935;28;20275;-67
2021/06/14 19:49:03;;;;;;;7.53;1.50;;;;;;;;;;5070503;28;20710;-66
2021/06/14 19:51:30;;;;;;;0.33;0.27;;;;;;;;;;5066477;28;20238;-67
2021/06/14 19:54:03;;;;;;;2.93;0.37;;;;;;;;;;5066108;28;20308;-67
2021/06/14 19:56:30;;;;;;;2.90;1.50;;;;;;;;;;5066947;28;20182;-68
2021/06/14 19:58:57;;;;;;;0.57;0.10;;;;;;;;;;5066722;28;20590;-65
2021/06/14 20:01:24;;;;;;;0.00;0.00;;;;;;;;;;5064360;28;20197;-68
2021/06/14 20:03:50;;;;;;;4.03;0.87;;;;;;;;;;5067684;28;20180;-68
2021/06/14 20:06:17;;;;;;;1.33;1.33;;;;;;;;;;5067831;28;20196;-66
2021/06/14 20:08:43;;;;;;;1.57;1.40;;;;;;;;;;5073945;28;20339;-68
2021/06/14 20:11:10;;;;;;;3.20;2.53;;;;;;;;;;5080065;28;20224;-67
2021/06/14 20:13:36;;;;;;;1.20;1.10;;;;;;;;;;5069139;28;20742;-68
2021/06/14 20:16:04;;;;;;;3.53;1.40;;;;;;;;;;5068125;28;20312;-68
2021/06/14 20:18:30;;;;;;;2.80;0.93;;;;;;;;;;5072811;28;20721;-67
2021/06/14 20:20:57;;;;;;;1.67;1.23;;;;;;;;;;5075149;28;20698;-67
2021/06/14 20:23:28;;;;;;;6.30;2.67;;;;;;;;;;5065122;28;20202;-68
2021/06/14 20:25:55;;;;;;;4.17;2.23;;;;;;;;;;5065427;28;20185;-68
2021/06/14 20:28:21;;;;;;;0.00;0.00;;;;;;;;;;5075436;28;20303;-67
2021/06/14 20:30:48;;;;;;;0.70;0.40;;;;;;;;;;5068032;28;20183;-67
2021/06/14 20:33:15;;;;;;;2.50;0.97;;;;;;;;;;5066580;28;20562;-67
2021/06/14 20:35:42;;;;;;;3.00;2.40;;;;;;;;;;5063778;28;20254;-68
2021/06/14 20:38:11;;;;;;;1.50;0.93;;;;;;;;;;5068993;28;20463;-67
2021/06/14 20:40:38;;;;;;;3.90;1.27;;;;;;;;;;5071361;28;20269;-68
2021/06/14 20:43:05;;;;;;;3.00;2.80;;;;;;;;;;5069793;28;20190;-67
2021/06/14 20:45:31;;;;;;;2.40;0.70;;;;;;;;;;5070280;28;20204;-67
2021/06/14 20:47:58;;;;;;;2.33;0.73;;;;;;;;;;5076316;28;20719;-67
2021/06/14 20:50:25;;;;;;;0.40;0.23;;;;;;;;;;5078379;28;20578;-67
2021/06/14 20:52:51;;;;;;;0.00;0.00;;;;;;;;;;5076693;28;20565;-67
2021/06/14 20:55:18;;;;;;;1.33;0.60;;;;;;;;;;5077599;28;20555;-67
2021/06/14 20:57:44;;;;;;;0.00;0.00;;;;;;;;;;5077772;28;20181;-67
2021/06/14 21:00:12;;;;;;;4.20;2.23;;;;;;;;;;5077074;28;20182;-67
2021/06/14 21:02:39;;;;;;;9.80;1.97;;;;;;;;;;5078153;28;20761;-67
2021/06/14 21:05:07;;;;;;;12.73;1.43;;;;;;;;;;5078317;28;20166;-67
2021/06/14 21:07:35;;;;;;;5.20;0.70;;;;;;;;;;5079669;28;20889;-67
2021/06/14 21:10:02;;;;;;;0.23;0.23;;;;;;;;;;5078559;28;20240;-67
2021/06/14 21:12:28;;;;;;;0.70;0.20;;;;;;;;;;5078445;28;20275;-67
2021/06/14 21:14:55;;;;;;;6.23;2.00;;;;;;;;;;5077953;28;20179;-67
2021/06/14 21:17:21;;;;;;;0.47;0.47;;;;;;;;;;5077219;28;20157;-67
2021/06/14 21:19:49;;;;;;;3.30;0.10;;;;;;;;;;5076910;28;20352;-67
2021/06/14 21:22:16;;;;;;;1.13;0.60;;;;;;;;;;5078540;28;20302;-67
2021/06/14 21:24:42;;;;;;;1.77;1.67;;;;;;;;;;5078385;28;20196;-67
2021/06/14 21:27:09;;;;;;;2.43;1.03;;;;;;;;;;5078449;28;20589;-68
2021/06/14 21:29:35;;;;;;;2.20;1.07;;;;;;;;;;5079452;28;20753;-67
2021/06/14 21:32:02;;;;;;;1.00;1.00;;;;;;;;;;5081954;28;20675;-67
2021/06/14 21:34:28;;;;;;;0.00;0.00;;;;;;;;;;5082466;28;20443;-67
2021/06/14 21:36:55;;;;;;;3.40;1.03;;;;;;;;;;5082795;28;20167;-67
2021/06/14 21:39:23;;;;;;;0.40;0.40;;;;;;;;;;5072579;28;20177;-67
2021/06/14 21:41:50;;;;;;;7.47;0.27;;;;;;;;;;5082553;28;20221;-68
2021/06/14 21:44:16;;;;;;;10.00;2.57;;;;;;;;;;5083075;28;20215;-67
2021/06/14 21:46:43;;;;;;;3.60;1.20;;;;;;;;;;5082925;28;20185;-67
2021/06/14 21:49:10;;;;;;;0.00;0.00;;;;;;;;;;5082794;28;20672;-67
2021/06/14 21:51:36;;;;;;;0.43;0.43;;;;;;;;;;5081736;28;20305;-67
2021/06/14 21:54:03;;;;;;;4.33;2.17;;;;;;;;;;5082626;28;20178;-67
2021/06/14 21:56:30;;;;;;;0.00;0.00;;;;;;;;;;5084867;28;20506;-66
2021/06/14 21:58:57;;;;;;;0.87;0.47;;;;;;;;;;5084188;28;20549;-67
2021/06/14 22:01:26;;;;;;;11.63;1.97;;;;;;;;;;5083091;28;20197;-66
2021/06/14 22:03:53;;;;;;;0.53;0.30;;;;;;;;;;5081153;28;20208;-67
2021/06/14 22:06:19;;;;;;;0.00;0.00;;;;;;;;;;5079244;28;20631;-66
2021/06/14 22:08:46;;;;;;;3.13;2.03;;;;;;;;;;5080579;28;20237;-66
2021/06/14 22:11:12;;;;;;;6.97;2.20;;;;;;;;;;5081730;28;20577;-66
2021/06/14 22:13:40;;;;;;;0.07;0.07;;;;;;;;;;5082413;28;20509;-66
2021/06/14 22:16:06;;;;;;;1.80;0.53;;;;;;;;;;5080722;28;20186;-67
2021/06/14 22:18:33;;;;;;;0.63;0.20;;;;;;;;;;5081590;28;20170;-66
2021/06/14 22:20:59;;;;;;;0.87;0.30;;;;;;;;;;5079869;28;20807;-67
2021/06/14 22:23:26;;;;;;;3.80;0.33;;;;;;;;;;5080974;28;20276;-66
2021/06/14 22:25:52;;;;;;;29.03;9.53;;;;;;;;;;5080918;28;20832;-67
2021/06/14 22:28:19;;;;;;;0.97;0.97;;;;;;;;;;5081093;28;20202;-66
2021/06/14 22:30:45;;;;;;;0.10;0.10;;;;;;;;;;5080961;28;20166;-66
2021/06/14 22:33:12;;;;;;;3.30;2.67;;;;;;;;;;5081127;28;20578;-66
2021/06/14 22:35:38;;;;;;;0.00;0.00;;;;;;;;;;5079846;28;20662;-67
2021/06/14 22:38:05;;;;;;;0.20;0.20;;;;;;;;;;5081650;28;20170;-67
2021/06/14 22:40:32;;;;;;;3.93;0.30;;;;;;;;;;5080893;28;20170;-67
2021/06/14 22:42:58;;;;;;;1.20;0.93;;;;;;;;;;5081538;28;20274;-67
2021/06/14 22:45:25;;;;;;;0.00;0.00;;;;;;;;;;5081359;28;20169;-66
2021/06/14 22:47:51;;;;;;;0.70;0.70;;;;;;;;;;5081152;28;20596;-67
2021/06/14 22:50:18;;;;;;;24.83;1.80;;;;;;;;;;5080105;28;20658;-64
2021/06/14 22:52:45;;;;;;;151.03;14.20;;;;;;;;;;5080259;28;20182;-64
2021/06/14 22:55:12;;;;;;;0.53;0.33;;;;;;;;;;5081261;28;20193;-64
2021/06/14 22:57:39;;;;;;;3.30;1.07;;;;;;;;;;5081509;28;20703;-64
2021/06/14 23:00:07;;;;;;;0.27;0.27;;;;;;;;;;5080234;28;20189;-64
2021/06/14 23:02:35;;;;;;;1.13;0.40;;;;;;;;;;5080703;28;20176;-64
2021/06/14 23:05:02;;;;;;;1.70;0.43;;;;;;;;;;5078958;28;20167;-63
2021/06/14 23:07:28;;;;;;;0.00;0.00;;;;;;;;;;5080100;28;20387;-63
2021/06/14 23:09:55;;;;;;;0.30;0.20;;;;;;;;;;5079807;28;20549;-64
2021/06/14 23:12:21;;;;;;;0.13;0.13;;;;;;;;;;5080532;28;20191;-63
2021/06/14 23:14:48;;;;;;;2.20;0.80;;;;;;;;;;5080889;28;20616;-63
2021/06/14 23:17:14;;;;;;;0.77;0.63;;;;;;;;;;5078512;28;20231;-64
2021/06/14 23:19:41;;;;;;;2.00;0.83;;;;;;;;;;5079640;28;20642;-65
2021/06/14 23:22:07;;;;;;;0.30;0.30;;;;;;;;;;5079180;28;20167;-63
2021/06/14 23:24:34;;;;;;;0.50;0.50;;;;;;;;;;5080124;28;20202;-64
2021/06/14 23:27:00;;;;;;;0.00;0.00;;;;;;;;;;5077076;28;20273;-66
2021/06/14 23:29:27;;;;;;;3.57;3.37;;;;;;;;;;5078918;28;20194;-65
2021/06/14 23:31:53;;;;;;;2.87;2.70;;;;;;;;;;5076267;28;20512;-63
2021/06/14 23:34:20;;;;;;;2.80;2.20;;;;;;;;;;5077913;28;20214;-63
2021/06/14 23:36:46;;;;;;;1.30;1.30;;;;;;;;;;5075908;28;20239;-64
2021/06/14 23:39:13;;;;;;;4.17;3.83;;;;;;;;;;5078288;28;20197;-63
2021/06/14 23:41:40;;;;;;;0.00;0.00;;;;;;;;;;5077058;28;20210;-63
2021/06/14 23:44:09;;;;;;;0.00;0.00;;;;;;;;;;5073853;28;20186;-63
2021/06/14 23:46:36;;;;;;;5.83;4.50;;;;;;;;;;5078781;28;20252;-64
2021/06/14 23:49:03;;;;;;;0.00;0.00;;;;;;;;;;5075666;28;20206;-64
2021/06/14 23:51:29;;;;;;;1.30;1.20;;;;;;;;;;5072006;28;20708;-64
2021/06/14 23:53:56;;;;;;;0.30;0.23;;;;;;;;;;5066414;28;20277;-65
2021/06/14 23:56:24;;;;;;;0.10;0.10;;;;;;;;;;5067029;28;20545;-64
2021/06/14 23:58:51;;;;;;;11.13;4.50;;;;;;;;;;5068888;28;20338;-63
